Latest Weather Observations for Colpoys Point

IDW60801

Issued at 5:03 am WST Wednesday 8 December 2021 (issued every 10 minutes, with the page automatically refreshed every 10 minutes)

About weather observations | Map of weather stations | Latest weather observations for WA | Other Formats
Station Details ID: 009255 Name: COLPOYS POINT Lat: -32.23 Lon: 115.70 Height: 3.0 m
Data from the previous 72 hours. | See also: Recent months for locations in Western Australia
Date/Time
WST
Temp
°C
App
Temp
°C
Dew
Point
°C
Rel
Hum
%
Delta-T
°C
Wind Press
QNH
hPa
Press
MSL
hPa
Rain since
9am
mm
Dir  Spd
km/h
Gust
km/h
Spd
kts
Gust
kts
08/05:00am - - - - - ENE 20 24 11 13 - - -
08/04:30am - - - - - E 20 26 11 14 - - -
08/04:00am - - - - - ENE 26 30 14 16 - - -
08/03:30am - - - - - E 30 37 16 20 - - -
08/03:00am - - - - - E 32 39 17 21 - - -
08/02:30am - - - - - E 30 37 16 20 - - -
08/02:00am - - - - - E 19 24 10 13 - - -
08/01:30am - - - - - E 32 39 17 21 - - -
08/01:00am - - - - - E 30 41 16 22 - - -
08/12:30am - - - - - E 39 48 21 26 - - -
08/12:00am - - - - - E 39 52 21 28 - - -
 
Date/Time
WST
Temp
°C
App
Temp
°C
Dew
Point
°C
Rel
Hum
%
Delta-T
°C
Wind Press
QNH
hPa
Press
MSL
hPa
Rain since
9am
mm
Dir  Spd
km/h
Gust
km/h
Spd
kts
Gust
kts
07/11:30pm - - - - - E 41 50 22 27 - - -
07/11:00pm - - - - - E 35 50 19 27 - - -
07/10:30pm - - - - - E 35 48 19 26 - - -
07/10:00pm - - - - - ESE 30 41 16 22 - - -
07/09:30pm - - - - - ESE 30 37 16 20 - - -
07/09:00pm - - - - - ESE 26 32 14 17 - - -
07/08:30pm - - - - - SE 20 32 11 17 - - -
07/08:00pm - - - - - SE 24 28 13 15 - - -
07/07:30pm - - - - - SE 19 20 10 11 - - -
07/07:00pm - - - - - SE 20 24 11 13 - - -
07/06:30pm - - - - - E 26 32 14 17 - - -
07/06:00pm - - - - - E 28 32 15 17 - - -
07/05:30pm - - - - - E 26 32 14 17 - - -
07/05:00pm - - - - - E 26 30 14 16 - - -
07/04:30pm - - - - - E 22 28 12 15 - - -
07/04:00pm - - - - - ESE 24 32 13 17 - - -
07/03:30pm - - - - - E 28 33 15 18 - - -
07/03:00pm - - - - - E 28 33 15 18 - - -
07/02:30pm - - - - - ESE 26 32 14 17 - - -
07/02:00pm - - - - - E 26 30 14 16 - - -
07/01:30pm - - - - - E 24 32 13 17 - - -
07/01:00pm - - - - - E 26 37 14 20 - - -
07/12:30pm - - - - - E 30 35 16 19 - - -
07/12:00pm - - - - - E 28 33 15 18 - - -
07/11:30am - - - - - E 30 39 16 21 - - -
07/11:00am - - - - - E 37 44 20 24 - - -
07/10:30am - - - - - ESE 32 39 17 21 - - -
07/10:00am - - - - - E 32 39 17 21 - - -
07/09:30am - - - - - E 32 39 17 21 - - -
07/09:00am - - - - - E 30 37 16 20 - - -
07/08:30am - - - - - E 32 39 17 21 - - -
07/08:00am - - - - - E 32 39 17 21 - - -
07/07:30am - - - - - E 33 43 18 23 - - -
07/07:00am - - - - - ESE 33 44 18 24 - - -
07/06:30am - - - - - ESE 32 37 17 20 - - -
07/06:00am - - - - - ESE 30 37 16 20 - - -
07/05:30am - - - - - ESE 32 35 17 19 - - -
07/05:00am - - - - - ESE 32 37 17 20 - - -
07/04:30am - - - - - ESE 32 39 17 21 - - -
07/04:00am - - - - - ESE 32 39 17 21 - - -
07/03:30am - - - - - ESE 26 32 14 17 - - -
07/03:00am - - - - - ESE 26 33 14 18 - - -
07/02:30am - - - - - ESE 33 41 18 22 - - -
07/02:00am - - - - - ESE 33 39 18 21 - - -
07/01:30am - - - - - ESE 37 44 20 24 - - -
07/01:00am - - - - - ESE 39 50 21 27 - - -
07/12:30am - - - - - ESE 39 52 21 28 - - -
07/12:00am - - - - - ESE 43 56 23 30 - - -
 
Date/Time
WST
Temp
°C
App
Temp
°C
Dew
Point
°C
Rel
Hum
%
Delta-T
°C
Wind Press
QNH
hPa
Press
MSL
hPa
Rain since
9am
mm
Dir  Spd
km/h
Gust
km/h
Spd
kts
Gust
kts
06/11:30pm - - - - - ESE 43 56 23 30 - - -
06/11:00pm - - - - - ESE 41 50 22 27 - - -
06/10:30pm - - - - - ESE 46 56 25 30 - - -
06/10:00pm - - - - - SE 41 52 22 28 - - -
06/09:30pm - - - - - ESE 35 48 19 26 - - -
06/09:00pm - - - - - ESE 35 50 19 27 - - -
06/08:30pm - - - - - SE 33 39 18 21 - - -
06/08:00pm - - - - - SE 33 46 18 25 - - -
06/07:30pm - - - - - SE 32 39 17 21 - - -
06/07:00pm - - - - - SE 33 39 18 21 - - -
06/06:30pm - - - - - SE 33 41 18 22 - - -
06/06:00pm - - - - - SE 32 37 17 20 - - -
06/05:30pm - - - - - SE 33 41 18 22 - - -
06/05:00pm - - - - - SSE 33 37 18 20 - - -
06/04:30pm - - - - - SSE 22 30 12 16 - - -
06/04:00pm - - - - - SSW 24 30 13 16 - - -
06/03:30pm - - - - - SSW 30 35 16 19 - - -
06/03:00pm - - - - - SSW 30 35 16 19 - - -
06/02:30pm - - - - - SSW 32 39 17 21 - - -
06/02:00pm - - - - - SW 32 37 17 20 - - -
06/01:30pm - - - - - SW 24 30 13 16 - - -
06/01:00pm - - - - - SSW 20 26 11 14 - - -
06/12:30pm - - - - - S 17 26 9 14 - - -
06/12:00pm - - - - - SE 17 24 9 13 - - -
06/11:30am - - - - - SE 19 26 10 14 - - -
06/11:00am - - - - - SSE 17 19 9 10 - - -
06/10:30am - - - - - SE 19 26 10 14 - - -
06/10:00am - - - - - SE 19 26 10 14 - - -
06/09:30am - - - - - SE 20 30 11 16 - - -
06/09:00am - - - - - ESE 28 33 15 18 - - -
06/08:30am - - - - - SE 26 32 14 17 - - -
06/08:00am - - - - - ESE 32 37 17 20 - - -
06/07:30am - - - - - SE 32 41 17 22 - - -
06/07:00am - - - - - ESE 26 33 14 18 - - -
06/06:30am - - - - - SE 24 33 13 18 - - -
06/06:00am - - - - - SE 20 26 11 14 - - -
06/05:30am - - - - - SE 26 33 14 18 - - -
06/05:00am - - - - - SE 24 32 13 17 - - -
06/04:30am - - - - - SE 26 33 14 18 - - -
06/04:00am - - - - - SE 24 30 13 16 - - -
06/03:30am - - - - - SE 24 30 13 16 - - -
06/03:00am - - - - - SE 24 30 13 16 - - -
06/02:30am - - - - - SE 22 28 12 15 - - -
06/02:00am - - - - - SE 26 32 14 17 - - -
06/01:30am - - - - - SE 28 33 15 18 - - -
06/01:00am - - - - - SE 30 35 16 19 - - -
06/12:30am - - - - - SSE 28 33 15 18 - - -
06/12:00am - - - - - SE 26 32 14 17 - - -
 
Date/Time
WST
Temp
°C
App
Temp
°C
Dew
Point
°C
Rel
Hum
%
Delta-T
°C
Wind Press
QNH
hPa
Press
MSL
hPa
Rain since
9am
mm
Dir  Spd
km/h
Gust
km/h
Spd
kts
Gust
kts
05/11:30pm - - - - - SSE 26 32 14 17 - - -
05/11:00pm - - - - - SSE 24 30 13 16 - - -
05/10:30pm - - - - - S 26 30 14 16 - - -
05/10:00pm - - - - - S 33 39 18 21 - - -
05/09:30pm - - - - - S 33 39 18 21 - - -
05/09:00pm - - - - - SSW 37 44 20 24 - - -
05/08:30pm - - - - - SSW 41 48 22 26 - - -
05/08:00pm - - - - - SSW 41 50 22 27 - - -
05/07:30pm - - - - - SSW 43 52 23 28 - - -
05/07:00pm - - - - - SSW 41 52 22 28 - - -
05/06:30pm - - - - - SSW 44 52 24 28 - - -
05/06:00pm - - - - - SSW 43 52 23 28 - - -
05/05:30pm - - - - - SSW 41 52 22 28 - - -
05/05:00pm - - - - - SSW 39 50 21 27 - - -
05/04:30pm - - - - - SSW 35 48 19 26 - - -
05/04:00pm - - - - - SSW 35 43 19 23 - - -
05/03:30pm - - - - - SSW 39 48 21 26 - - -
05/03:00pm - - - - - SSW 39 50 21 27 - - -
05/02:30pm - - - - - SSW 41 50 22 27 - - -
05/02:00pm - - - - - SSW 39 52 21 28 - - -
05/01:30pm - - - - - SSW 37 46 20 25 - - -
05/01:00pm - - - - - SSW 39 48 21 26 - - -
05/12:30pm - - - - - SSW 35 46 19 25 - - -
05/12:00pm - - - - - SW 33 43 18 23 - - -
05/11:30am - - - - - SW 30 37 16 20 - - -
05/11:00am - - - - - SW 28 37 15 20 - - -
05/10:30am - - - - - SSW 24 28 13 15 - - -
05/10:00am - - - - - SSW 28 32 15 17 - - -
05/09:30am - - - - - SSW 32 35 17 19 - - -
05/09:00am - - - - - SSW 26 32 14 17 - - -
05/08:38am - - - - - SW 19 32 10 17 - - -
05/08:30am - - - - - SSW 9 13 5 7 - - -
05/08:00am - - - - - SSE 9 11 5 6 - - -
05/07:30am - - - - - SE 11 13 6 7 - - -
05/07:00am - - - - - SE 11 15 6 8 - - -
05/06:30am - - - - - SE 15 17 8 9 - - -
05/06:00am - - - - - SSE 13 17 7 9 - - -
05/05:30am - - - - - SE 17 19 9 10 - - -

Other formats

Comma delimited format used in spreadsheet applications
http://www.bom.gov.au/fwo/IDW60801/IDW60801.99255.axf

JavaScript Object Notation format (JSON) in row-major order
http://www.bom.gov.au/fwo/IDW60801/IDW60801.99255.json

Data quality

Most of these data are generated automatically and are frequently updated. Quality checks on data are not normally performed. It is possible for incorrect values to appear. Refer to information at About Latest Weather Observations and please check the disclaimer before using these data.